Time;durP1;ratioP1;P1;durP2;ratioP2;P2;SDS_P1;SDS_P2;PMS_P1;PMS_P2;Temp;Humidity;BMP_temperature;BMP_pressure;BME280_temperature;BME280_humidity;BME280_pressure;Samples;Min_cycle;Max_cycle;Signal;HPM_P1;HPM_P2
2023/01/22 00:00:53;;;;;;;20.60;10.73;;;;;;;;;;5096880;28;20106;-65
2023/01/22 00:03:19;;;;;;;16.15;9.95;;;;;;;;;;5096037;28;20276;-66
2023/01/22 00:05:46;;;;;;;21.90;11.93;;;;;;;;;;5092167;28;20392;-65
2023/01/22 00:08:11;;;;;;;20.75;11.57;;;;;;;;;;5079488;28;20284;-65
2023/01/22 00:10:36;;;;;;;16.77;10.00;;;;;;;;;;5092745;28;20040;-65
2023/01/22 00:13:01;;;;;;;19.93;10.97;;;;;;;;;;5091738;28;20031;-64
2023/01/22 00:15:26;;;;;;;18.07;10.63;;;;;;;;;;5064168;28;20041;-66
2023/01/22 00:17:52;;;;;;;13.30;8.40;;;;;;;;;;5093612;28;20027;-65
2023/01/22 00:20:17;;;;;;;12.30;8.27;;;;;;;;;;5066207;28;20077;-66
2023/01/22 00:22:43;;;;;;;13.98;7.80;;;;;;;;;;5090657;28;20051;-65
2023/01/22 00:25:10;;;;;;;13.77;7.30;;;;;;;;;;5072352;28;20021;-65
2023/01/22 00:27:35;;;;;;;11.10;6.80;;;;;;;;;;5098536;28;20276;-65
2023/01/22 00:30:01;;;;;;;11.18;6.70;;;;;;;;;;5096450;28;20145;-67
2023/01/22 00:32:26;;;;;;;10.47;6.63;;;;;;;;;;5093157;28;20114;-66
2023/01/22 00:34:53;;;;;;;11.47;6.10;;;;;;;;;;5095415;28;20024;-67
2023/01/22 00:37:19;;;;;;;11.95;6.50;;;;;;;;;;5078061;28;20099;-66
2023/01/22 00:39:44;;;;;;;11.65;7.00;;;;;;;;;;5088871;28;20598;-67
2023/01/22 00:42:09;;;;;;;10.90;6.80;;;;;;;;;;5090580;28;20024;-66
2023/01/22 00:44:35;;;;;;;11.80;6.47;;;;;;;;;;5087943;28;20407;-67
2023/01/22 00:47:00;;;;;;;10.60;6.97;;;;;;;;;;5091602;28;20393;-67
2023/01/22 00:49:25;;;;;;;12.90;7.45;;;;;;;;;;5085340;28;20372;-67
2023/01/22 00:51:50;;;;;;;11.52;6.95;;;;;;;;;;5082706;28;20036;-67
2023/01/22 00:54:16;;;;;;;12.63;7.03;;;;;;;;;;5089014;28;20485;-66
2023/01/22 00:56:41;;;;;;;16.03;9.03;;;;;;;;;;5090284;28;20280;-66
2023/01/22 00:59:09;;;;;;;14.17;8.10;;;;;;;;;;5083726;28;20288;-67
2023/01/22 01:01:35;;;;;;;10.55;6.45;;;;;;;;;;5089555;28;20027;-66
2023/01/22 01:04:00;;;;;;;10.85;6.80;;;;;;;;;;5091821;28;20024;-67
2023/01/22 01:06:25;;;;;;;9.77;6.17;;;;;;;;;;5084542;28;20028;-67
2023/01/22 01:08:50;;;;;;;15.13;6.93;;;;;;;;;;5097291;28;20091;-66
2023/01/22 01:11:17;;;;;;;9.63;6.37;;;;;;;;;;5098916;28;20042;-66
2023/01/22 01:13:43;;;;;;;12.95;6.75;;;;;;;;;;5093538;28;20040;-66
2023/01/22 01:16:29;;;;;;;12.63;7.10;;;;;;;;;;5092372;28;20027;-67
2023/01/22 01:19:12;;;;;;;16.38;7.90;;;;;;;;;;5069477;28;20038;-67
2023/01/22 01:21:37;;;;;;;17.60;8.80;;;;;;;;;;5064983;28;20036;-67
2023/01/22 01:24:03;;;;;;;16.77;7.73;;;;;;;;;;5068685;28;20156;-66
2023/01/22 01:26:29;;;;;;;13.70;7.10;;;;;;;;;;5095763;28;20283;-67
2023/01/22 01:28:54;;;;;;;13.63;7.85;;;;;;;;;;5067449;28;20032;-66
2023/01/22 01:31:21;;;;;;;14.83;9.03;;;;;;;;;;5093377;28;20032;-67
2023/01/22 01:33:46;;;;;;;13.70;8.48;;;;;;;;;;5095355;28;20095;-67
2023/01/22 01:36:13;;;;;;;15.20;7.88;;;;;;;;;;5067028;28;20119;-67
2023/01/22 01:38:38;;;;;;;14.95;8.98;;;;;;;;;;5093042;28;20085;-67
2023/01/22 01:41:04;;;;;;;22.75;12.02;;;;;;;;;;5087191;28;20032;-66
2023/01/22 01:43:29;;;;;;;19.90;11.48;;;;;;;;;;5099922;28;20024;-66
2023/01/22 01:45:56;;;;;;;20.77;10.73;;;;;;;;;;5100572;28;20051;-67
2023/01/22 01:48:24;;;;;;;20.95;11.13;;;;;;;;;;5097284;28;20028;-67
2023/01/22 01:50:55;;;;;;;17.60;8.98;;;;;;;;;;5093567;28;20023;-66
2023/01/22 01:53:20;;;;;;;14.77;8.35;;;;;;;;;;5066796;28;20028;-67
2023/01/22 01:55:45;;;;;;;14.27;8.60;;;;;;;;;;5068156;28;20077;-66
2023/01/22 01:58:17;;;;;;;14.93;8.38;;;;;;;;;;5095044;28;20024;-67
2023/01/22 02:00:42;;;;;;;16.25;8.60;;;;;;;;;;5074873;28;20051;-66
2023/01/22 02:03:08;;;;;;;19.75;10.32;;;;;;;;;;5091478;28;20078;-67
2023/01/22 02:05:36;;;;;;;16.50;9.07;;;;;;;;;;5071044;28;20165;-67
2023/01/22 02:08:02;;;;;;;19.58;11.02;;;;;;;;;;5094257;28;20020;-66
2023/01/22 02:10:27;;;;;;;28.35;15.10;;;;;;;;;;5092939;28;20035;-66
2023/01/22 02:12:54;;;;;;;17.77;10.25;;;;;;;;;;5093609;28;20030;-67
2023/01/22 02:15:20;;;;;;;18.90;10.38;;;;;;;;;;5091065;28;20062;-66
2023/01/22 02:17:46;;;;;;;19.33;10.52;;;;;;;;;;5086292;28;20116;-66
2023/01/22 02:20:11;;;;;;;20.73;11.23;;;;;;;;;;5093966;28;20030;-66
2023/01/22 02:22:37;;;;;;;20.08;11.18;;;;;;;;;;5100776;28;20028;-67
2023/01/22 02:25:04;;;;;;;19.33;10.40;;;;;;;;;;5093650;28;20096;-67
2023/01/22 02:27:29;;;;;;;19.55;10.50;;;;;;;;;;5069971;28;20032;-66
2023/01/22 02:29:54;;;;;;;20.07;11.03;;;;;;;;;;5100649;28;20027;-67
2023/01/22 02:32:20;;;;;;;18.87;11.03;;;;;;;;;;5096735;28;20031;-67
2023/01/22 02:34:46;;;;;;;19.70;11.63;;;;;;;;;;5097030;28;20310;-66
2023/01/22 02:37:11;;;;;;;21.87;12.53;;;;;;;;;;5091278;28;20107;-66
2023/01/22 02:39:36;;;;;;;21.38;12.40;;;;;;;;;;5095362;28;20345;-66
2023/01/22 02:42:03;;;;;;;22.93;11.43;;;;;;;;;;5094887;28;20035;-66
2023/01/22 02:44:28;;;;;;;20.85;10.00;;;;;;;;;;5091099;28;20357;-66
2023/01/22 02:46:53;;;;;;;16.83;9.53;;;;;;;;;;5093436;28;20400;-67
2023/01/22 02:49:18;;;;;;;16.85;10.15;;;;;;;;;;5091506;28;20638;-66
2023/01/22 02:51:44;;;;;;;16.38;9.98;;;;;;;;;;5091366;28;20024;-66
2023/01/22 02:54:09;;;;;;;18.43;9.77;;;;;;;;;;5073318;28;20557;-66
2023/01/22 02:56:35;;;;;;;21.53;11.03;;;;;;;;;;5092067;28;20333;-66
2023/01/22 02:59:00;;;;;;;17.35;10.35;;;;;;;;;;5096893;28;20295;-66
2023/01/22 03:01:26;;;;;;;18.15;10.55;;;;;;;;;;5095740;28;20027;-65
2023/01/22 03:04:00;;;;;;;15.77;9.80;;;;;;;;;;5098140;28;20395;-66
2023/01/22 03:06:26;;;;;;;17.42;9.63;;;;;;;;;;5095277;28;20291;-66
2023/01/22 03:08:59;;;;;;;20.20;10.07;;;;;;;;;;5100115;28;20054;-66
2023/01/22 03:11:25;;;;;;;14.90;9.13;;;;;;;;;;5096273;28;20024;-66
2023/01/22 03:22:03;;;;;;;16.38;9.25;;;;;;;;;;5088401;28;20047;-66
2023/01/22 03:24:28;;;;;;;13.90;8.48;;;;;;;;;;5084731;28;20028;-66
2023/01/22 03:26:53;;;;;;;15.07;9.07;;;;;;;;;;5073556;28;20024;-65
2023/01/22 03:29:19;;;;;;;15.93;8.83;;;;;;;;;;5082447;28;20585;-65
2023/01/22 03:31:47;;;;;;;15.47;8.93;;;;;;;;;;5091757;28;20418;-65
2023/01/22 03:34:13;;;;;;;19.33;10.48;;;;;;;;;;5097199;28;20683;-65
2023/01/22 03:36:38;;;;;;;20.98;11.20;;;;;;;;;;5065317;28;20477;-65
2023/01/22 03:39:03;;;;;;;20.43;12.10;;;;;;;;;;5102029;28;20028;-65
2023/01/22 03:41:29;;;;;;;24.20;12.83;;;;;;;;;;5096689;28;20504;-66
2023/01/22 03:43:54;;;;;;;22.90;12.23;;;;;;;;;;5100098;28;20276;-65
2023/01/22 03:46:19;;;;;;;25.02;13.00;;;;;;;;;;5096502;28;20052;-66
2023/01/22 03:48:48;;;;;;;22.92;13.25;;;;;;;;;;5093979;28;20028;-66
2023/01/22 03:51:14;;;;;;;25.83;13.85;;;;;;;;;;5090860;28;20028;-66
2023/01/22 03:53:40;;;;;;;27.10;14.70;;;;;;;;;;5087784;28;20039;-66
2023/01/22 03:56:07;;;;;;;28.23;14.75;;;;;;;;;;5091158;28;20027;-66
2023/01/22 03:58:33;;;;;;;21.52;12.65;;;;;;;;;;5090552;28;20103;-65
2023/01/22 04:01:05;;;;;;;22.33;12.15;;;;;;;;;;5073994;28;20123;-66
2023/01/22 04:03:30;;;;;;;22.30;12.35;;;;;;;;;;5083944;28;20056;-65
2023/01/22 04:05:59;;;;;;;22.60;12.70;;;;;;;;;;5087484;28;20564;-65
2023/01/22 04:08:24;;;;;;;21.10;11.85;;;;;;;;;;5088852;28;20089;-65
2023/01/22 04:10:49;;;;;;;21.30;12.27;;;;;;;;;;5067030;28;20032;-66
2023/01/22 04:13:14;;;;;;;24.37;12.53;;;;;;;;;;5094325;28;20066;-65
2023/01/22 04:15:42;;;;;;;22.20;12.13;;;;;;;;;;5097457;28;20466;-66
2023/01/22 04:18:07;;;;;;;22.88;12.70;;;;;;;;;;5094960;28;20032;-65
2023/01/22 04:20:32;;;;;;;26.23;13.27;;;;;;;;;;5084741;28;20043;-65
2023/01/22 04:22:57;;;;;;;23.33;12.57;;;;;;;;;;5073456;28;20775;-65
2023/01/22 04:25:23;;;;;;;22.60;12.65;;;;;;;;;;5091724;28;20320;-65
2023/01/22 04:27:48;;;;;;;23.77;12.80;;;;;;;;;;5090252;28;20863;-65
2023/01/22 04:30:14;;;;;;;24.43;13.00;;;;;;;;;;5089799;28;20394;-67
2023/01/22 04:32:39;;;;;;;24.83;13.30;;;;;;;;;;5092468;28;20281;-67
2023/01/22 04:35:04;;;;;;;23.13;12.13;;;;;;;;;;5090772;28;20036;-66
2023/01/22 04:37:30;;;;;;;25.60;12.70;;;;;;;;;;5084279;28;20281;-66
2023/01/22 04:39:56;;;;;;;23.55;13.07;;;;;;;;;;5085766;28;20122;-67
2023/01/22 04:42:21;;;;;;;23.60;12.40;;;;;;;;;;5070524;28;20028;-66
2023/01/22 04:44:46;;;;;;;22.98;13.20;;;;;;;;;;5084877;28;20078;-65
2023/01/22 04:47:11;;;;;;;22.30;12.47;;;;;;;;;;5085784;28;20027;-66
2023/01/22 04:49:37;;;;;;;24.67;13.10;;;;;;;;;;5075619;28;20151;-66
2023/01/22 04:52:02;;;;;;;23.37;13.07;;;;;;;;;;5100853;28;20034;-66
2023/01/22 04:54:27;;;;;;;21.50;12.35;;;;;;;;;;5095745;28;20072;-66
2023/01/22 04:56:52;;;;;;;24.10;12.27;;;;;;;;;;5093090;28;20023;-67
2023/01/22 04:59:18;;;;;;;21.83;12.73;;;;;;;;;;5095002;28;20969;-67
2023/01/22 05:01:43;;;;;;;25.03;13.57;;;;;;;;;;5089445;28;20276;-67
2023/01/22 05:04:08;;;;;;;26.15;14.20;;;;;;;;;;5096509;28;20287;-67
2023/01/22 05:06:34;;;;;;;24.35;13.68;;;;;;;;;;5092744;28;20030;-66
2023/01/22 05:08:59;;;;;;;29.17;11.90;;;;;;;;;;5088850;28;20034;-67
2023/01/22 05:11:24;;;;;;;20.37;11.80;;;;;;;;;;5060732;28;20276;-67
2023/01/22 05:13:49;;;;;;;19.93;11.63;;;;;;;;;;5089960;28;20299;-67
2023/01/22 05:16:15;;;;;;;18.67;11.13;;;;;;;;;;5090478;28;20288;-67
2023/01/22 05:18:40;;;;;;;24.67;12.33;;;;;;;;;;5072230;28;20509;-67
2023/01/22 05:21:05;;;;;;;18.73;11.20;;;;;;;;;;5087667;28;20280;-67
2023/01/22 05:23:30;;;;;;;20.87;12.27;;;;;;;;;;5069016;28;20040;-67
2023/01/22 05:25:56;;;;;;;20.95;11.82;;;;;;;;;;5084504;28;20706;-67
2023/01/22 05:28:21;;;;;;;23.25;11.38;;;;;;;;;;5094822;28;20565;-67
2023/01/22 05:30:47;;;;;;;20.50;11.50;;;;;;;;;;5100182;28;20078;-67
2023/01/22 05:33:12;;;;;;;23.08;12.48;;;;;;;;;;5073343;28;20031;-67
2023/01/22 05:35:37;;;;;;;22.27;12.70;;;;;;;;;;5096137;28;20457;-66
2023/01/22 05:38:02;;;;;;;21.13;11.98;;;;;;;;;;5091446;28;20430;-66
2023/01/22 05:40:27;;;;;;;27.98;15.68;;;;;;;;;;5090221;28;20028;-67
2023/01/22 05:42:53;;;;;;;24.13;14.97;;;;;;;;;;5091717;28;20095;-67
2023/01/22 05:45:18;;;;;;;22.50;11.50;;;;;;;;;;5064964;28;20059;-67
2023/01/22 05:47:43;;;;;;;17.80;10.47;;;;;;;;;;5089029;28;20123;-66
2023/01/22 05:50:09;;;;;;;20.40;11.50;;;;;;;;;;5082302;28;20337;-67
2023/01/22 05:52:34;;;;;;;22.17;11.45;;;;;;;;;;5091335;28;20031;-67
2023/01/22 05:55:00;;;;;;;20.90;11.80;;;;;;;;;;5080198;28;20107;-67
2023/01/22 05:57:26;;;;;;;20.27;11.68;;;;;;;;;;5086824;28;20747;-66
2023/01/22 05:59:52;;;;;;;19.90;11.98;;;;;;;;;;5086826;28;20032;-67
2023/01/22 06:02:17;;;;;;;22.75;12.35;;;;;;;;;;5086805;28;20057;-67
2023/01/22 06:04:42;;;;;;;26.33;13.53;;;;;;;;;;5091382;28;20096;-67
2023/01/22 06:07:07;;;;;;;26.80;14.00;;;;;;;;;;5095379;28;20070;-67
2023/01/22 06:09:32;;;;;;;25.50;14.13;;;;;;;;;;5097196;28;20038;-66
2023/01/22 06:11:58;;;;;;;29.33;14.23;;;;;;;;;;5092808;28;20641;-65
2023/01/22 06:14:23;;;;;;;23.87;13.80;;;;;;;;;;5092749;28;20078;-65
2023/01/22 06:16:48;;;;;;;25.23;14.13;;;;;;;;;;5097219;28;20028;-67
2023/01/22 06:19:13;;;;;;;24.13;13.63;;;;;;;;;;5086575;28;20286;-66
2023/01/22 06:21:39;;;;;;;26.13;13.90;;;;;;;;;;5094359;28;20630;-66
2023/01/22 06:24:05;;;;;;;23.58;13.27;;;;;;;;;;5096904;28;20284;-67
2023/01/22 06:26:30;;;;;;;21.58;12.52;;;;;;;;;;5089378;28;20115;-66
2023/01/22 06:28:55;;;;;;;20.92;12.20;;;;;;;;;;5070678;28;20043;-66
2023/01/22 06:31:20;;;;;;;23.67;13.10;;;;;;;;;;5071317;28;20028;-66
2023/01/22 06:33:46;;;;;;;23.33;12.73;;;;;;;;;;5091531;28;20027;-66
2023/01/22 06:36:11;;;;;;;25.77;13.30;;;;;;;;;;5070988;28;20560;-66
2023/01/22 06:38:37;;;;;;;24.20;12.93;;;;;;;;;;5089352;28;20036;-66
2023/01/22 06:41:02;;;;;;;23.58;13.23;;;;;;;;;;5090172;28;20692;-66
2023/01/22 06:43:28;;;;;;;25.13;13.88;;;;;;;;;;5074155;28;20032;-65
2023/01/22 06:45:53;;;;;;;24.55;14.23;;;;;;;;;;5086233;28;20402;-66
2023/01/22 06:48:19;;;;;;;23.40;14.07;;;;;;;;;;5079398;28;20095;-66
2023/01/22 06:50:44;;;;;;;23.17;13.43;;;;;;;;;;5080288;28;20036;-67
2023/01/22 06:53:09;;;;;;;25.65;14.35;;;;;;;;;;5073836;28;20289;-66
2023/01/22 06:55:34;;;;;;;28.07;14.73;;;;;;;;;;5072776;28;20020;-67
2023/01/22 06:58:00;;;;;;;32.83;16.67;;;;;;;;;;5061469;28;20272;-67
2023/01/22 07:00:25;;;;;;;35.97;17.77;;;;;;;;;;5072679;28;20572;-67
2023/01/22 07:02:51;;;;;;;86.75;22.20;;;;;;;;;;5072973;28;20531;-67
2023/01/22 07:05:18;;;;;;;29.92;16.80;;;;;;;;;;5072821;28;20020;-67
2023/01/22 07:07:44;;;;;;;33.92;16.88;;;;;;;;;;5074240;28;20031;-67
2023/01/22 07:10:09;;;;;;;29.45;16.17;;;;;;;;;;5074042;28;20103;-67
2023/01/22 07:12:34;;;;;;;28.83;16.13;;;;;;;;;;5070393;28;20042;-67
2023/01/22 07:15:00;;;;;;;28.93;15.97;;;;;;;;;;5057516;28;20024;-67
2023/01/22 07:17:25;;;;;;;32.73;16.47;;;;;;;;;;5067684;28;20820;-66
2023/01/22 07:19:50;;;;;;;31.80;17.40;;;;;;;;;;5074147;28;20304;-67
2023/01/22 07:22:15;;;;;;;31.13;17.53;;;;;;;;;;5079356;28;20024;-66
2023/01/22 07:24:41;;;;;;;36.03;18.20;;;;;;;;;;5077275;28;20028;-67
2023/01/22 07:27:06;;;;;;;31.60;17.30;;;;;;;;;;5075175;28;20320;-67
2023/01/22 07:29:31;;;;;;;31.73;15.97;;;;;;;;;;5074293;28;20353;-67
2023/01/22 07:31:56;;;;;;;27.27;15.60;;;;;;;;;;5071129;28;20040;-68
2023/01/22 07:34:21;;;;;;;35.85;18.88;;;;;;;;;;5075943;28;20352;-68
2023/01/22 07:36:47;;;;;;;33.87;18.07;;;;;;;;;;5074786;28;20141;-68
2023/01/22 07:39:12;;;;;;;34.75;18.65;;;;;;;;;;5074814;28;20084;-68
2023/01/22 07:41:37;;;;;;;32.03;18.25;;;;;;;;;;5073292;28;20143;-67
2023/01/22 07:44:03;;;;;;;32.77;17.17;;;;;;;;;;5072105;28;20021;-67
2023/01/22 07:46:28;;;;;;;33.67;18.65;;;;;;;;;;5094157;28;20031;-68
2023/01/22 07:48:53;;;;;;;29.23;17.10;;;;;;;;;;5092641;28;20031;-68
2023/01/22 07:51:19;;;;;;;33.77;17.70;;;;;;;;;;5066808;28;20067;-67
2023/01/22 07:53:44;;;;;;;33.17;17.92;;;;;;;;;;5071197;28;20355;-67
2023/01/22 07:56:09;;;;;;;31.88;17.80;;;;;;;;;;5089252;28;20033;-68
2023/01/22 07:58:34;;;;;;;37.63;18.43;;;;;;;;;;5100750;28;20106;-68
2023/01/22 08:01:03;;;;;;;37.60;18.60;;;;;;;;;;5066602;28;20295;-68
2023/01/22 08:03:32;;;;;;;40.60;19.30;;;;;;;;;;5072962;28;20363;-67
2023/01/22 08:05:57;;;;;;;43.45;21.20;;;;;;;;;;5094079;28;20032;-67
2023/01/22 08:08:23;;;;;;;43.97;20.50;;;;;;;;;;5093133;28;20035;-67
2023/01/22 08:10:48;;;;;;;42.00;19.47;;;;;;;;;;5092728;28;20474;-68
2023/01/22 08:13:13;;;;;;;1496.65;295.35;;;;;;;;;;5090430;28;20481;-67
2023/01/22 08:15:40;;;;;;;47.65;22.23;;;;;;;;;;5094852;28;20038;-67
2023/01/22 08:18:06;;;;;;;49.30;23.13;;;;;;;;;;5088892;28;20041;-68
2023/01/22 08:20:31;;;;;;;48.22;22.20;;;;;;;;;;5086781;28;20028;-67
2023/01/22 08:22:57;;;;;;;51.65;22.15;;;;;;;;;;5089161;28;20024;-67
2023/01/22 08:25:23;;;;;;;53.67;23.40;;;;;;;;;;5089805;28;20043;-67
2023/01/22 08:27:48;;;;;;;53.27;23.90;;;;;;;;;;5088292;28;20251;-68
2023/01/22 08:30:14;;;;;;;53.10;23.27;;;;;;;;;;5089691;28;20050;-69
2023/01/22 08:32:40;;;;;;;53.58;23.65;;;;;;;;;;5082077;28;20027;-66
2023/01/22 08:35:06;;;;;;;56.85;23.83;;;;;;;;;;5087617;28;20023;-67
2023/01/22 08:37:31;;;;;;;56.17;23.90;;;;;;;;;;5092160;28;20073;-67
2023/01/22 08:39:57;;;;;;;61.87;24.57;;;;;;;;;;5089815;28;20489;-66
2023/01/22 08:42:22;;;;;;;58.87;23.13;;;;;;;;;;5087792;28;20276;-66
2023/01/22 08:44:47;;;;;;;60.67;24.10;;;;;;;;;;5088381;28;20326;-66
2023/01/22 08:47:12;;;;;;;53.63;22.83;;;;;;;;;;5087598;28;20070;-66
2023/01/22 08:49:37;;;;;;;53.50;22.00;;;;;;;;;;5092453;28;20052;-67
2023/01/22 08:52:03;;;;;;;52.75;23.10;;;;;;;;;;5089040;28;20070;-67
2023/01/22 08:54:28;;;;;;;56.60;22.67;;;;;;;;;;5087112;28;20029;-67
2023/01/22 08:56:53;;;;;;;57.50;21.83;;;;;;;;;;5089880;28;20028;-68
2023/01/22 08:59:19;;;;;;;53.27;20.63;;;;;;;;;;5085541;28;20033;-69
2023/01/22 09:01:44;;;;;;;55.28;21.55;;;;;;;;;;5063999;28;20059;-71
2023/01/22 09:04:09;;;;;;;63.63;23.85;;;;;;;;;;5086819;28;20094;-71
2023/01/22 09:06:35;;;;;;;57.55;22.70;;;;;;;;;;5086539;28;20385;-71
2023/01/22 09:09:00;;;;;;;62.75;24.13;;;;;;;;;;5082118;28;20722;-72
2023/01/22 09:11:29;;;;;;;61.58;21.73;;;;;;;;;;5062703;28;20024;-71
2023/01/22 09:13:55;;;;;;;62.15;23.73;;;;;;;;;;5096587;28;20043;-70
2023/01/22 09:16:24;;;;;;;64.07;23.17;;;;;;;;;;5097719;28;20064;-71
2023/01/22 09:18:50;;;;;;;57.58;21.08;;;;;;;;;;5095206;28;20032;-71
2023/01/22 09:21:15;;;;;;;74.70;23.37;;;;;;;;;;5070220;28;20032;-70
2023/01/22 09:23:40;;;;;;;67.23;22.30;;;;;;;;;;5088881;28;20311;-70
2023/01/22 09:26:05;;;;;;;69.40;23.57;;;;;;;;;;5067374;28;20553;-71
2023/01/22 09:28:31;;;;;;;73.50;23.63;;;;;;;;;;5096970;28;20275;-71
2023/01/22 09:30:56;;;;;;;70.50;24.67;;;;;;;;;;5089544;28;20304;-70
2023/01/22 09:33:21;;;;;;;72.95;22.88;;;;;;;;;;5090555;28;20082;-71
2023/01/22 09:35:47;;;;;;;60.47;22.90;;;;;;;;;;5084967;28;20057;-71
2023/01/22 09:38:12;;;;;;;72.67;24.53;;;;;;;;;;5088123;28;20028;-71
2023/01/22 09:40:41;;;;;;;76.95;23.77;;;;;;;;;;5092343;28;20034;-72
2023/01/22 09:43:17;;;;;;;73.65;25.00;;;;;;;;;;5092138;28;20031;-72
2023/01/22 09:45:42;;;;;;;63.72;23.77;;;;;;;;;;5089120;28;20056;-71
2023/01/22 09:48:12;;;;;;;67.47;23.63;;;;;;;;;;5087547;28;20401;-71
2023/01/22 09:50:39;;;;;;;81.35;26.65;;;;;;;;;;5101936;28;20416;-72
2023/01/22 09:53:06;;;;;;;76.75;25.20;;;;;;;;;;5099627;28;20116;-72
2023/01/22 09:55:35;;;;;;;74.00;25.25;;;;;;;;;;5105035;28;20032;-72
2023/01/22 09:58:04;;;;;;;89.22;29.33;;;;;;;;;;5084329;28;20141;-71
2023/01/22 10:00:40;;;;;;;98.75;30.60;;;;;;;;;;5100423;28;20400;-69
2023/01/22 10:03:15;;;;;;;147.20;31.42;;;;;;;;;;5091307;28;20047;-71
2023/01/22 10:05:42;;;;;;;88.55;28.20;;;;;;;;;;5094548;28;20027;-71
2023/01/22 10:08:22;;;;;;;225.13;33.53;;;;;;;;;;5086740;28;20024;-71
2023/01/22 10:10:49;;;;;;;92.88;29.02;;;;;;;;;;5097084;28;20392;-71
2023/01/22 10:13:19;;;;;;;99.18;29.27;;;;;;;;;;5072763;28;20136;-71
2023/01/22 10:15:45;;;;;;;104.22;31.95;;;;;;;;;;5088054;28;20028;-72
2023/01/22 10:18:25;;;;;;;109.30;36.10;;;;;;;;;;5094727;28;20606;-72
2023/01/22 10:20:52;;;;;;;129.38;38.15;;;;;;;;;;5070433;28;20069;-72
2023/01/22 10:23:18;;;;;;;134.30;36.85;;;;;;;;;;5088535;28;20701;-73
2023/01/22 10:25:43;;;;;;;118.72;38.10;;;;;;;;;;5086472;28;20028;-71
2023/01/22 10:28:09;;;;;;;136.33;38.73;;;;;;;;;;5096069;28;20075;-72
2023/01/22 10:30:43;;;;;;;130.98;38.78;;;;;;;;;;5102619;28;20283;-73
2023/01/22 10:33:14;;;;;;;117.05;38.53;;;;;;;;;;5069841;28;20025;-72
2023/01/22 10:35:45;;;;;;;124.72;39.65;;;;;;;;;;5096079;28;20051;-71
2023/01/22 10:38:20;;;;;;;106.78;36.00;;;;;;;;;;5096254;28;20016;-72
2023/01/22 10:40:50;;;;;;;101.28;35.85;;;;;;;;;;5073067;28;20030;-73
2023/01/22 10:43:18;;;;;;;102.70;35.47;;;;;;;;;;5092360;28;20028;-71
2023/01/22 10:45:50;;;;;;;122.70;41.20;;;;;;;;;;5066630;28;20040;-71
2023/01/22 10:48:16;;;;;;;102.80;35.85;;;;;;;;;;5073098;28;20173;-73
2023/01/22 10:50:41;;;;;;;92.00;33.50;;;;;;;;;;5073711;28;20805;-72
2023/01/22 10:53:22;;;;;;;89.13;33.60;;;;;;;;;;5073874;28;20445;-73
2023/01/22 10:55:55;;;;;;;137.30;49.60;;;;;;;;;;5071429;28;20490;-71
2023/01/22 10:58:22;;;;;;;99.50;37.90;;;;;;;;;;5061974;28;20528;-72
2023/01/22 11:01:10;;;;;;;100.07;37.05;;;;;;;;;;5063877;28;20032;-72
2023/01/22 11:03:36;;;;;;;99.55;36.58;;;;;;;;;;5069724;28;20050;-72
2023/01/22 11:06:04;;;;;;;89.57;34.20;;;;;;;;;;5074250;28;20028;-72
2023/01/22 11:08:35;;;;;;;84.05;34.83;;;;;;;;;;5063757;28;20060;-71
2023/01/22 11:11:03;;;;;;;95.50;39.00;;;;;;;;;;5069866;28;20028;-72
2023/01/22 11:13:47;;;;;;;92.90;39.65;;;;;;;;;;5072619;28;20060;-73
2023/01/22 11:16:12;;;;;;;93.07;36.40;;;;;;;;;;5089459;28;20016;-73
2023/01/22 11:18:38;;;;;;;92.15;37.17;;;;;;;;;;5091081;28;20029;-73
2023/01/22 11:21:21;;;;;;;81.38;34.00;;;;;;;;;;5073658;28;20032;-72
2023/01/22 11:23:52;;;;;;;76.18;34.05;;;;;;;;;;5084543;28;20116;-71
2023/01/22 11:26:36;;;;;;;87.32;35.60;;;;;;;;;;5073818;28;20020;-72
2023/01/22 11:29:03;;;;;;;85.72;36.55;;;;;;;;;;5065980;28;20522;-71
2023/01/22 11:31:58;;;;;;;86.75;37.35;;;;;;;;;;5072576;28;20292;-71
2023/01/22 11:34:42;;;;;;;88.05;37.47;;;;;;;;;;5043212;28;20487;-72
2023/01/22 11:37:13;;;;;;;79.93;34.90;;;;;;;;;;5045289;28;20044;-72
2023/01/22 11:39:59;;;;;;;80.70;36.13;;;;;;;;;;5047321;28;20047;-71
2023/01/22 11:42:25;;;;;;;77.30;32.55;;;;;;;;;;5045615;28;20043;-72
2023/01/22 11:44:50;;;;;;;73.63;32.53;;;;;;;;;;5048463;28;20439;-73
2023/01/22 11:47:44;;;;;;;77.32;33.92;;;;;;;;;;5042746;28;20036;-73
2023/01/22 11:50:18;;;;;;;75.78;34.33;;;;;;;;;;5026130;28;20074;-68
2023/01/22 11:52:43;;;;;;;70.45;32.78;;;;;;;;;;5029883;28;20032;-67
2023/01/22 11:55:21;;;;;;;69.47;32.43;;;;;;;;;;5047738;28;20067;-67
2023/01/22 11:58:05;;;;;;;74.55;33.45;;;;;;;;;;5045432;28;20040;-68
2023/01/22 12:00:30;;;;;;;73.47;32.03;;;;;;;;;;5046900;28;20068;-68
2023/01/22 12:02:55;;;;;;;68.13;33.15;;;;;;;;;;5046662;28;20064;-67
2023/01/22 12:05:26;;;;;;;65.37;31.97;;;;;;;;;;5046825;28;20041;-67
2023/01/22 12:08:11;;;;;;;67.80;31.50;;;;;;;;;;5045349;28;20040;-67
2023/01/22 12:10:36;;;;;;;63.83;30.17;;;;;;;;;;5045244;28;20484;-68
2023/01/22 12:13:04;;;;;;;67.47;30.97;;;;;;;;;;5070109;28;20032;-68
2023/01/22 12:15:43;;;;;;;61.05;27.80;;;;;;;;;;5059893;28;20087;-67
2023/01/22 12:18:37;;;;;;;52.10;26.13;;;;;;;;;;5066316;28;20103;-68
2023/01/22 12:21:21;;;;;;;67.70;33.05;;;;;;;;;;5058472;28;20513;-68
2023/01/22 12:23:46;;;;;;;67.60;30.98;;;;;;;;;;5069225;28;20466;-67
2023/01/22 12:26:25;;;;;;;72.57;33.00;;;;;;;;;;5081124;28;20020;-67
2023/01/22 12:28:50;;;;;;;80.45;35.05;;;;;;;;;;5071373;28;20024;-68
2023/01/22 12:31:18;;;;;;;69.97;31.93;;;;;;;;;;5074819;28;20026;-69
2023/01/22 12:33:44;;;;;;;76.85;35.13;;;;;;;;;;5075631;28;20058;-68
2023/01/22 12:36:12;;;;;;;78.20;34.50;;;;;;;;;;5075206;28;20496;-68
2023/01/22 12:38:37;;;;;;;79.20;35.75;;;;;;;;;;5069300;28;20062;-68
2023/01/22 12:41:11;;;;;;;84.13;38.30;;;;;;;;;;5069508;28;20363;-68
2023/01/22 12:43:57;;;;;;;69.95;32.70;;;;;;;;;;5067049;28;20282;-68
2023/01/22 12:46:25;;;;;;;76.28;36.92;;;;;;;;;;5087197;28;20490;-68
2023/01/22 12:48:51;;;;;;;;;;;;;;;;;;5067009;28;20094;-68
2023/01/22 12:51:24;;;;;;;78.60;33.28;;;;;;;;;;5089444;28;19960;-68
2023/01/22 12:53:49;;;;;;;68.30;31.77;;;;;;;;;;5065015;28;20481;-68
2023/01/22 12:56:27;;;;;;;67.43;31.43;;;;;;;;;;5073142;28;20078;-69
2023/01/22 12:58:54;;;;;;;60.63;29.52;;;;;;;;;;5094644;28;20024;-69
2023/01/22 13:01:21;;;;;;;58.75;28.65;;;;;;;;;;5083909;28;20053;-67
2023/01/22 13:04:04;;;;;;;71.63;28.80;;;;;;;;;;5070800;28;20448;-69
2023/01/22 13:06:29;;;;;;;70.07;32.85;;;;;;;;;;5089172;28;20059;-68
2023/01/22 13:08:54;;;;;;;67.13;32.00;;;;;;;;;;5088687;28;20055;-68
2023/01/22 13:11:33;;;;;;;65.47;31.93;;;;;;;;;;5091540;28;20059;-69
2023/01/22 13:14:07;;;;;;;67.07;32.47;;;;;;;;;;5083685;28;20363;-68
2023/01/22 13:16:33;;;;;;;68.55;32.17;;;;;;;;;;5089179;28;20022;-69
2023/01/22 13:18:59;;;;;;;64.53;30.23;;;;;;;;;;5072752;28;20044;-74
2023/01/22 13:21:29;;;;;;;55.92;27.88;;;;;;;;;;5086888;28;20505;-75
2023/01/22 13:24:00;;;;;;;50.22;24.90;;;;;;;;;;5062686;28;20031;-73
2023/01/22 13:26:26;;;;;;;54.03;25.75;;;;;;;;;;5070685;28;20391;-73
2023/01/22 13:28:54;;;;;;;53.33;26.00;;;;;;;;;;5089633;28;20032;-74
2023/01/22 13:31:20;;;;;;;56.30;27.90;;;;;;;;;;5085678;28;20081;-74
2023/01/22 13:34:07;;;;;;;53.10;26.33;;;;;;;;;;5087760;28;20557;-74
2023/01/22 13:36:35;;;;;;;52.65;27.10;;;;;;;;;;5087430;28;20024;-74
2023/01/22 13:39:00;;;;;;;57.75;28.20;;;;;;;;;;5079885;28;20371;-74
2023/01/22 13:41:34;;;;;;;58.23;28.97;;;;;;;;;;5100861;28;20024;-74
2023/01/22 13:44:00;;;;;;;60.53;29.35;;;;;;;;;;5088034;28;20043;-69
2023/01/22 13:46:27;;;;;;;55.28;27.38;;;;;;;;;;5087743;28;20930;-68
2023/01/22 13:49:22;;;;;;;55.70;29.40;;;;;;;;;;5066322;28;20521;-69
2023/01/22 13:51:47;;;;;;;54.65;28.50;;;;;;;;;;5070996;28;20044;-69
2023/01/22 13:54:30;;;;;;;59.85;28.98;;;;;;;;;;5082533;28;20039;-68
2023/01/22 13:56:56;;;;;;;54.25;28.27;;;;;;;;;;5084309;28;20027;-68
2023/01/22 13:59:22;;;;;;;62.95;30.15;;;;;;;;;;5063883;28;20036;-69
2023/01/22 14:01:48;;;;;;;58.75;28.40;;;;;;;;;;5084094;28;20062;-69
2023/01/22 14:04:36;;;;;;;57.85;28.73;;;;;;;;;;5082094;28;20055;-67
2023/01/22 14:07:02;;;;;;;52.33;26.52;;;;;;;;;;5064453;28;20031;-66
2023/01/22 14:09:28;;;;;;;50.70;24.90;;;;;;;;;;5083271;28;20119;-66
2023/01/22 14:11:54;;;;;;;48.35;25.33;;;;;;;;;;5086223;28;20020;-67
2023/01/22 14:14:19;;;;;;;48.97;25.75;;;;;;;;;;5090639;28;20020;-68
2023/01/22 14:16:45;;;;;;;55.75;26.05;;;;;;;;;;5076077;28;20095;-69
2023/01/22 14:19:10;;;;;;;54.97;26.45;;;;;;;;;;5095087;28;20051;-68
2023/01/22 14:21:36;;;;;;;67.83;32.30;;;;;;;;;;5092075;28;20035;-68
2023/01/22 14:24:02;;;;;;;56.45;27.85;;;;;;;;;;5090165;28;20287;-68
2023/01/22 14:26:28;;;;;;;57.72;27.15;;;;;;;;;;5088739;28;20128;-67
2023/01/22 14:28:53;;;;;;;51.08;25.85;;;;;;;;;;5092567;28;20094;-69